»·PEaware :: WAT169 KSNA-KBFI

WAT169 :: KSNA-KBFI

FLIGHT INFORMATION

Flight Status: Arrived
Operator:
Walker Air Transport
More flights by this operator :: More flights under this callsign
Pilot: Marty P. (27464)
Aircraft: DASSAULT AVIATION FALCON 50
(FA50)
More flights by this aircraft type
Origin: KSNA John Wayne-Orange Co
United States
Destination: KBFI Boeing Field/King Co Intl
United States
More flights between these airports :: More routes between these airports
Route: HHERO3 EHF LKV BTG OLM2
File this flight plan on PilotEdge
Remarks: See! I do fly non-boring flights! D
Altitude:
(Current/Filed)
40,000ft
Speed:
(Current/Filed)
480kts
Departed: 29-Nov-20 03:00 PM
Arrived: 29-Nov-20 05:19 PM
Distance/Time
Traveled:
856nm/2:19
Distance/Time
To Go:
Arrived

Flight Plot

Page will automatically refresh every two minutes.

Flight plan parsing failed; only flown route is shown


Map Options




Map Legend


Flown Route
Filed Route
Departure Airport
Arrival Airport
Navaid (VOR, NDB)
Fix

Horizontal Profiles

Position Reports

Time Latitude Longitude Heading Altitude Ground
Speed
29-Nov-20 14:28 33.671903 -117.866999 29 63ft 0kts
29-Nov-20 14:29 33.671903 -117.866999 29 63ft 0kts
29-Nov-20 14:30 33.671903 -117.866999 29 63ft 0kts
29-Nov-20 14:31 33.671903 -117.866999 29 63ft 0kts
29-Nov-20 14:32 33.671903 -117.866999 29 63ft 0kts
29-Nov-20 14:33 33.671903 -117.866999 29 63ft 0kts
29-Nov-20 14:34 33.671903 -117.866999 29 63ft 0kts
29-Nov-20 14:35 33.671903 -117.866999 29 63ft 0kts
29-Nov-20 14:36 33.671903 -117.866999 29 63ft 0kts
29-Nov-20 14:38 33.671903 -117.866999 29 63ft 0kts
29-Nov-20 14:39 33.671903 -117.866999 29 63ft 0kts
29-Nov-20 14:40 33.671903 -117.866999 29 63ft 0kts
29-Nov-20 14:41 33.671903 -117.866999 29 63ft 0kts
29-Nov-20 14:42 33.671903 -117.866999 29 63ft 0kts
29-Nov-20 14:43 33.671903 -117.866999 29 63ft 0kts
29-Nov-20 14:44 33.671903 -117.866999 29 63ft 0kts
29-Nov-20 14:45 33.671903 -117.866999 29 63ft 0kts
29-Nov-20 14:46 33.671903 -117.866999 29 63ft 0kts
29-Nov-20 14:47 33.671903 -117.866999 29 63ft 0kts
29-Nov-20 14:48 33.671903 -117.866999 29 63ft 0kts
29-Nov-20 14:49 33.671903 -117.866999 29 63ft 0kts
29-Nov-20 14:50 33.671903 -117.866999 29 63ft 0kts
29-Nov-20 14:51 33.671963 -117.866960 23 63ft 1kts
29-Nov-20 14:52 33.672318 -117.867362 297 63ft 0kts
29-Nov-20 14:53 33.672318 -117.867362 297 63ft 0kts
29-Nov-20 14:54 33.674164 -117.866435 27 63ft 15kts
29-Nov-20 14:54 33.676328 -117.865069 27 63ft 6kts
29-Nov-20 14:56 33.679997 -117.862741 27 63ft 12kts
29-Nov-20 14:56 33.680694 -117.863165 296 63ft 0kts
29-Nov-20 14:57 33.680710 -117.863203 296 63ft 0kts
29-Nov-20 14:58 33.680790 -117.863385 297 63ft 9kts
29-Nov-20 14:59 33.676623 -117.868245 208 63ft 103kts
29-Nov-20 15:00 33.635509 -117.891174 191 2465ft 210kts
29-Nov-20 15:01 33.568640 -117.904942 209 5030ft 266kts
29-Nov-20 15:02 33.514499 -117.963730 222 7348ft 266kts
29-Nov-20 15:03 33.465761 -118.031955 239 8003ft 277kts
29-Nov-20 15:04 33.426236 -118.112923 240 10814ft 319kts
29-Nov-20 15:05 33.424271 -118.226597 285 14556ft 365kts
29-Nov-20 15:06 33.456601 -118.338757 298 16004ft 361kts
29-Nov-20 15:07 33.506241 -118.450393 307 15991ft 394kts
29-Nov-20 15:08 33.609152 -118.477979 6 16583ft 399kts
29-Nov-20 15:09 33.715196 -118.461754 4 20074ft 390kts
29-Nov-20 15:10 33.824586 -118.459513 358 22758ft 404kts
29-Nov-20 15:11 33.936515 -118.459728 357 25014ft 416kts
29-Nov-20 15:12 34.052099 -118.467254 350 26847ft 425kts
29-Nov-20 15:13 34.169535 -118.485521 349 28537ft 433kts
29-Nov-20 15:14 34.284333 -118.503060 346 32194ft 384kts
29-Nov-20 15:15 34.339592 -118.511645 345 33166ft 385kts
29-Nov-20 15:16 34.443249 -118.527722 344 34998ft 380kts
29-Nov-20 15:17 34.547362 -118.543860 344 36508ft 380kts
29-Nov-20 15:18 34.652190 -118.560160 344 37839ft 382kts
29-Nov-20 15:19 34.757552 -118.576563 343 39069ft 384kts
29-Nov-20 15:20 34.863188 -118.593057 343 40175ft 385kts
29-Nov-20 15:21 34.972882 -118.610345 344 40280ft 411kts
29-Nov-20 15:22 35.068360 -118.669070 312 40292ft 400kts
29-Nov-20 15:23 35.151635 -118.757494 314 40291ft 418kts
29-Nov-20 15:24 35.241301 -118.848847 314 40216ft 429kts
29-Nov-20 15:25 35.332864 -118.942201 315 40212ft 434kts
29-Nov-20 15:26 35.425572 -119.037034 314 40210ft 436kts
29-Nov-20 15:27 35.527820 -119.112632 342 40223ft 461kts
29-Nov-20 15:28 35.655073 -119.130654 345 40207ft 467kts
29-Nov-20 15:29 35.783641 -119.152213 344 40208ft 466kts
29-Nov-20 15:30 35.911281 -119.175600 344 40210ft 467kts
29-Nov-20 15:31 36.039521 -119.199269 344 40216ft 468kts
29-Nov-20 15:32 36.162251 -119.222025 344 40220ft 469kts
29-Nov-20 15:33 36.284539 -119.244726 344 40224ft 469kts
29-Nov-20 15:34 36.412719 -119.268629 344 40225ft 470kts
29-Nov-20 15:35 36.540324 -119.292497 345 40228ft 470kts
29-Nov-20 15:36 36.668720 -119.316633 345 40225ft 471kts
29-Nov-20 15:37 36.796834 -119.340747 345 40216ft 471kts
29-Nov-20 15:38 36.922582 -119.364537 345 40214ft 471kts
29-Nov-20 15:39 37.048509 -119.388394 345 40214ft 471kts
29-Nov-20 15:40 37.160533 -119.409697 345 40221ft 471kts
29-Nov-20 15:41 37.273180 -119.431182 345 40253ft 471kts
29-Nov-20 15:42 37.400244 -119.455506 345 40260ft 471kts
29-Nov-20 15:43 37.540700 -119.482512 345 40260ft 472kts
29-Nov-20 15:44 37.672959 -119.507956 345 40259ft 473kts
29-Nov-20 15:45 37.800381 -119.532622 345 40262ft 474kts
29-Nov-20 15:46 37.929303 -119.557639 345 40295ft 475kts
29-Nov-20 15:47 38.059263 -119.583010 346 40293ft 475kts
29-Nov-20 15:48 38.186954 -119.607943 346 40295ft 476kts
29-Nov-20 15:49 38.313057 -119.632712 346 40292ft 476kts
29-Nov-20 15:50 38.439574 -119.657640 345 40297ft 476kts
29-Nov-20 15:51 38.568423 -119.683115 345 40295ft 476kts
29-Nov-20 15:52 38.698403 -119.708902 345 40295ft 477kts
29-Nov-20 15:53 38.827906 -119.734686 345 40295ft 478kts
29-Nov-20 15:54 38.959284 -119.760939 346 40303ft 478kts
29-Nov-20 15:55 39.089989 -119.787159 346 40304ft 478kts
29-Nov-20 15:56 39.219022 -119.813146 346 40309ft 479kts
29-Nov-20 15:57 39.348444 -119.839306 346 40301ft 480kts
29-Nov-20 15:58 39.480564 -119.866104 346 40304ft 481kts
29-Nov-20 15:59 39.612642 -119.893004 346 40309ft 482kts
29-Nov-20 16:00 39.744738 -119.920029 346 40311ft 482kts
29-Nov-20 16:01 39.877310 -119.947250 346 40310ft 483kts
29-Nov-20 16:02 40.009925 -119.974559 347 40311ft 483kts
29-Nov-20 16:03 40.141979 -120.001852 346 40311ft 482kts
29-Nov-20 16:04 40.274039 -120.029292 347 40316ft 482kts
29-Nov-20 16:05 40.406251 -120.056863 347 40319ft 482kts
29-Nov-20 16:06 40.538185 -120.084484 347 40319ft 482kts
29-Nov-20 16:07 40.670753 -120.112349 347 40319ft 482kts
29-Nov-20 16:08 40.802758 -120.140208 347 40319ft 482kts
29-Nov-20 16:09 40.934859 -120.168201 347 40272ft 483kts
29-Nov-20 16:10 41.067415 -120.196400 347 40254ft 483kts
29-Nov-20 16:11 41.198216 -120.224335 348 40255ft 483kts
29-Nov-20 16:12 41.330401 -120.252685 348 40255ft 483kts
29-Nov-20 16:13 41.462744 -120.281182 347 40244ft 482kts
29-Nov-20 16:14 41.594836 -120.309753 347 40245ft 481kts
29-Nov-20 16:15 41.726448 -120.338341 347 40244ft 481kts
29-Nov-20 16:16 41.858301 -120.367096 347 40244ft 481kts
29-Nov-20 16:17 41.989874 -120.395910 347 40247ft 481kts
29-Nov-20 16:18 42.121636 -120.424888 347 40254ft 481kts
29-Nov-20 16:19 42.253590 -120.454021 347 40254ft 482kts
29-Nov-20 16:20 42.385625 -120.483305 347 40253ft 482kts
29-Nov-20 16:21 42.515527 -120.521613 333 40264ft 475kts
29-Nov-20 16:22 42.636697 -120.594347 333 40256ft 477kts
29-Nov-20 16:23 42.757389 -120.667534 332 40268ft 478kts
29-Nov-20 16:24 42.878886 -120.741620 332 40267ft 479kts
29-Nov-20 16:25 43.000297 -120.815984 332 40266ft 480kts
29-Nov-20 16:26 43.121961 -120.890830 332 40250ft 481kts
29-Nov-20 16:27 43.243459 -120.965904 332 40228ft 482kts
29-Nov-20 16:29 43.365447 -121.041607 332 40228ft 482kts
29-Nov-20 16:30 43.487109 -121.117402 332 40228ft 482kts
29-Nov-20 16:31 43.608954 -121.193732 332 40227ft 483kts
29-Nov-20 16:32 43.731339 -121.270719 332 40227ft 483kts
29-Nov-20 16:33 43.853783 -121.348082 332 40227ft 484kts
29-Nov-20 16:34 43.975914 -121.425599 332 40227ft 484kts
29-Nov-20 16:35 44.098443 -121.503728 332 40227ft 485kts
29-Nov-20 16:36 44.220468 -121.581873 332 40224ft 486kts
29-Nov-20 16:37 44.343081 -121.660768 331 40228ft 486kts
29-Nov-20 16:38 44.465289 -121.739775 331 40222ft 487kts
29-Nov-20 16:39 44.587935 -121.819430 331 40220ft 487kts
29-Nov-20 16:40 44.710806 -121.899603 331 40215ft 487kts
29-Nov-20 16:41 44.833788 -121.980233 331 40208ft 488kts
29-Nov-20 16:42 44.956566 -122.061113 331 40205ft 489kts
29-Nov-20 16:43 45.079741 -122.142639 331 40202ft 490kts
29-Nov-20 16:44 45.200833 -122.223162 331 40218ft 490kts
29-Nov-20 16:44 45.302133 -122.290823 331 40217ft 490kts
29-Nov-20 16:46 45.445387 -122.386964 331 40217ft 491kts
29-Nov-20 16:47 45.568852 -122.470264 331 40198ft 492kts
29-Nov-20 16:47 45.671372 -122.539736 331 40190ft 492kts
29-Nov-20 16:48 45.799856 -122.604233 346 40194ft 500kts
29-Nov-20 16:49 45.935570 -122.638307 347 40182ft 497kts
29-Nov-20 16:51 46.092700 -122.677603 348 36865ft 493kts
29-Nov-20 16:51 46.203209 -122.705395 349 34393ft 490kts
29-Nov-20 16:52 46.336979 -122.739195 349 30972ft 496kts
29-Nov-20 16:53 46.470067 -122.772986 348 27495ft 482kts
29-Nov-20 16:54 46.598887 -122.805809 347 24257ft 455kts
29-Nov-20 16:55 46.717366 -122.836123 346 21604ft 411kts
29-Nov-20 16:56 46.824305 -122.863649 345 19526ft 375kts
29-Nov-20 16:57 46.924397 -122.889257 348 17500ft 360kts
29-Nov-20 16:58 47.014163 -122.847701 39 17007ft 346kts
29-Nov-20 16:59 47.086502 -122.755555 41 14845ft 342kts
29-Nov-20 17:00 47.156548 -122.665745 40 13336ft 330kts
29-Nov-20 17:01 47.224348 -122.579947 29 12978ft 323kts
29-Nov-20 17:02 47.305103 -122.582519 345 12257ft 287kts
29-Nov-20 17:03 47.382680 -122.601130 345 11052ft 281kts
29-Nov-20 17:04 47.458952 -122.621257 345 9512ft 277kts
29-Nov-20 17:05 47.533127 -122.643246 345 7751ft 267kts
29-Nov-20 17:06 47.600210 -122.664355 345 5543ft 240kts
29-Nov-20 17:07 47.662403 -122.686817 345 3977ft 228kts
29-Nov-20 17:08 47.723811 -122.710318 345 2877ft 223kts
29-Nov-20 17:09 47.762236 -122.677831 80 2493ft 191kts
29-Nov-20 17:10 47.772228 -122.600299 85 2492ft 195kts
29-Nov-20 17:11 47.746234 -122.530686 124 2488ft 193kts
29-Nov-20 17:12 47.716032 -122.467374 133 2489ft 186kts
29-Nov-20 17:13 47.674153 -122.424686 149 2489ft 181kts
29-Nov-20 17:14 47.633252 -122.389867 149 2131ft 153kts
29-Nov-20 17:15 47.602988 -122.364199 150 1399ft 114kts
29-Nov-20 17:16 47.574814 -122.340395 150 819ft 121kts
29-Nov-20 17:17 47.545198 -122.315301 150 154ft 119kts
29-Nov-20 17:18 47.527068 -122.300011 152 20ft 21kts
29-Nov-20 17:19 47.527744 -122.298517 19 20ft 8kts
29-Nov-20 17:20 47.531271 -122.300529 330 21ft 18kts
29-Nov-20 17:21 47.536687 -122.305419 329 23ft 17kts
29-Nov-20 17:22 47.539510 -122.307057 57 23ft 8kts
29-Nov-20 17:23 47.539660 -122.306972 321 23ft 0kts

Navigation Log

Ident Type
Flight plan parsing failed, navigation log unavailable